Time;durP1;ratioP1;P1;durP2;ratioP2;P2;SDS_P1;SDS_P2;PMS_P1;PMS_P2;Temp;Humidity;BMP_temperature;BMP_pressure;BME280_temperature;BME280_humidity;BME280_pressure;Samples;Min_cycle;Max_cycle;Signal;HPM_P1;HPM_P2
2024/01/15 00:00:00;;;;;;;11.03;7.80;;;;;;;0.63;95.33;98229.41;5072875;28;20319;-57
2024/01/15 00:02:28;;;;;;;9.00;6.70;;;;;;;0.64;96.34;98218.44;5073634;28;20524;-57
2024/01/15 00:04:57;;;;;;;9.73;7.07;;;;;;;0.65;95.86;98215.88;5077861;28;20217;-58
2024/01/15 00:07:25;;;;;;;11.53;7.30;;;;;;;0.67;95.85;98218.44;5070849;28;20212;-56
2024/01/15 00:09:53;;;;;;;10.50;7.90;;;;;;;0.68;95.69;98210.81;5064708;28;20231;-58
2024/01/15 00:12:21;;;;;;;13.23;7.80;;;;;;;0.73;95.05;98208.25;5066089;28;20888;-57
2024/01/15 00:14:49;;;;;;;10.00;7.53;;;;;;;0.74;95.10;98207.44;5071898;28;20648;-57
2024/01/15 00:17:17;;;;;;;11.80;7.47;;;;;;;0.74;95.16;98194.75;5070852;28;20267;-56
2024/01/15 00:19:45;;;;;;;11.10;7.73;;;;;;;0.76;94.35;98198.13;5071829;28;20217;-56
2024/01/15 00:22:14;;;;;;;11.37;7.53;;;;;;;0.74;95.52;98187.16;5072457;28;20211;-58
2024/01/15 00:24:42;;;;;;;11.87;7.53;;;;;;;0.74;95.42;98184.63;5075815;28;20666;-57
2024/01/15 00:27:10;;;;;;;15.17;8.40;;;;;;;0.77;96.23;98177.00;5063615;28;20246;-55
2024/01/15 00:29:38;;;;;;;15.13;9.67;;;;;;;0.75;95.57;98173.63;5068591;28;20202;-54
2024/01/15 00:32:06;;;;;;;10.97;7.70;;;;;;;0.71;95.81;98166.88;5062160;28;20210;-57
2024/01/15 00:34:34;;;;;;;14.67;8.57;;;;;;;0.71;95.62;98165.19;5065220;28;20224;-56
2024/01/15 00:37:03;;;;;;;10.47;7.13;;;;;;;0.70;96.16;98157.56;5071451;28;20207;-57
2024/01/15 00:39:32;;;;;;;12.60;8.33;;;;;;;0.72;95.39;98150.81;5071922;28;20683;-57
2024/01/15 00:42:00;;;;;;;11.67;8.40;;;;;;;0.75;95.79;98152.50;5070911;28;20545;-58
2024/01/15 00:44:28;;;;;;;13.20;7.23;;;;;;;0.73;95.17;98150.81;5065794;28;20202;-56
2024/01/15 00:46:56;;;;;;;9.70;7.10;;;;;;;0.75;95.24;98157.59;5070434;28;20625;-55
2024/01/15 00:49:24;;;;;;;13.10;8.03;;;;;;;0.73;95.33;98145.72;5071787;28;20256;-58
2024/01/15 00:51:52;;;;;;;11.57;8.00;;;;;;;0.73;95.03;98145.72;5065279;28;20668;-57
2024/01/15 00:54:20;;;;;;;11.27;7.60;;;;;;;0.72;94.99;98140.69;5071400;28;20201;-57
2024/01/15 00:56:49;;;;;;;11.37;7.03;;;;;;;0.70;94.97;98135.63;5071312;28;20236;-57
2024/01/15 00:59:17;;;;;;;12.87;7.23;;;;;;;0.70;95.62;98128.03;5071529;28;20595;-56
2024/01/15 01:01:45;;;;;;;13.10;7.60;;;;;;;0.68;96.47;98132.25;5064966;28;20605;-56
2024/01/15 01:04:14;;;;;;;11.47;8.13;;;;;;;0.66;96.59;98128.03;5070500;28;20580;-56
2024/01/15 01:06:42;;;;;;;13.43;8.03;;;;;;;0.63;97.92;98121.28;5069287;28;20299;-58
2024/01/15 01:09:10;;;;;;;12.57;8.80;;;;;;;0.60;98.06;98125.53;5070109;28;20240;-57
2024/01/15 01:11:38;;;;;;;12.63;8.27;;;;;;;0.57;97.67;98121.28;5068029;28;20193;-55
2024/01/15 01:14:07;;;;;;;12.00;8.10;;;;;;;0.54;98.68;98116.22;5071071;28;20201;-57
2024/01/15 01:16:38;;;;;;;12.70;8.87;;;;;;;0.53;99.63;98118.78;5071363;28;20201;-55
2024/01/15 01:19:07;;;;;;;14.53;9.10;;;;;;;0.54;99.87;98105.25;5070884;28;20304;-57
2024/01/15 01:21:36;;;;;;;13.73;9.73;;;;;;;0.52;99.07;98112.03;5070988;28;20645;-56
2024/01/15 01:24:04;;;;;;;12.90;9.10;;;;;;;0.48;99.94;98112.03;5070769;28;20206;-57
2024/01/15 01:26:32;;;;;;;13.70;9.40;;;;;;;0.48;100.00;98116.25;5068742;28;20204;-58
2024/01/15 01:29:00;;;;;;;13.80;9.70;;;;;;;0.46;100.00;98103.59;5071077;28;20673;-59
2024/01/15 01:31:29;;;;;;;14.17;9.10;;;;;;;0.46;100.00;98113.72;5065737;28;20205;-55
2024/01/15 01:33:57;;;;;;;14.00;9.33;;;;;;;0.44;100.00;98104.44;5071077;28;20208;-58
2024/01/15 01:36:25;;;;;;;15.73;9.30;;;;;;;0.41;100.00;98099.41;5070813;28;20687;-57
2024/01/15 01:38:53;;;;;;;13.53;9.93;;;;;;;0.40;100.00;98083.31;5061686;28;20210;-54
2024/01/15 01:41:21;;;;;;;16.57;10.17;;;;;;;0.39;100.00;98094.31;5070686;28;20243;-57
2024/01/15 01:43:49;;;;;;;13.87;9.83;;;;;;;0.40;99.77;98082.47;5072419;28;20601;-59
2024/01/15 01:46:17;;;;;;;13.27;9.30;;;;;;;0.40;99.18;98075.72;5071527;28;20566;-57
2024/01/15 01:48:46;;;;;;;15.20;10.33;;;;;;;0.41;99.72;98074.91;5059713;28;20206;-57
2024/01/15 01:51:15;;;;;;;12.77;9.53;;;;;;;0.38;99.33;98074.91;5069912;28;20201;-57
2024/01/15 01:53:45;;;;;;;14.70;10.27;;;;;;;0.43;100.00;98073.19;5070322;28;20200;-57
2024/01/15 01:56:14;;;;;;;14.50;10.63;;;;;;;0.43;99.69;98064.75;5061080;28;20197;-55
2024/01/15 01:58:42;;;;;;;14.77;9.80;;;;;;;0.43;100.00;98059.69;5058522;28;20200;-56
2024/01/15 02:01:10;;;;;;;16.73;11.00;;;;;;;0.43;100.00;98065.59;5070961;28;20224;-56
2024/01/15 02:03:40;;;;;;;14.63;9.77;;;;;;;0.46;99.66;98063.06;5066099;28;20252;-56
2024/01/15 02:06:10;;;;;;;14.23;10.23;;;;;;;0.47;98.66;98062.19;5059860;28;20202;-56
2024/01/15 02:08:38;;;;;;;15.13;10.67;;;;;;;0.48;98.89;98066.44;5070589;28;20200;-56
2024/01/15 02:11:07;;;;;;;14.23;9.90;;;;;;;0.48;97.72;98058.84;5065348;28;20197;-55
2024/01/15 02:13:34;;;;;;;16.30;10.33;;;;;;;0.50;97.49;98063.88;5070982;28;20212;-56
2024/01/15 02:16:02;;;;;;;14.40;10.53;;;;;;;0.52;96.77;98063.91;5072730;28;20209;-55
2024/01/15 02:18:39;;;;;;;16.50;10.17;;;;;;;0.53;97.56;98041.06;5070667;28;20303;-54
2024/01/15 02:21:08;;;;;;;14.13;10.20;;;;;;;0.55;97.10;98038.53;5070178;28;20209;-54
2024/01/15 02:23:37;;;;;;;14.73;10.63;;;;;;;0.57;96.52;98036.84;5064790;28;20201;-57
2024/01/15 02:26:06;;;;;;;11.40;9.23;;;;;;;0.59;97.06;98036.00;5067232;28;20205;-56
2024/01/15 02:28:34;;;;;;;15.13;10.57;;;;;;;0.57;96.08;98021.63;5070525;28;20201;-57
2024/01/15 02:31:02;;;;;;;14.70;9.33;;;;;;;0.57;96.08;98019.94;5070394;28;20275;-56
2024/01/15 02:33:30;;;;;;;15.27;9.93;;;;;;;0.59;95.83;98020.78;5070736;28;20213;-55
2024/01/15 02:35:59;;;;;;;12.97;10.07;;;;;;;0.59;95.08;98013.19;5070435;28;20711;-55
2024/01/15 02:38:27;;;;;;;15.57;9.80;;;;;;;0.60;95.74;98014.88;5068354;28;20215;-57
2024/01/15 02:40:56;;;;;;;12.20;9.20;;;;;;;0.60;95.51;98012.31;5058499;28;20270;-56
2024/01/15 02:43:24;;;;;;;15.50;9.27;;;;;;;0.59;95.72;98009.78;5070670;28;20229;-60
2024/01/15 02:45:52;;;;;;;12.80;9.43;;;;;;;0.61;95.01;98010.63;5069370;28;20201;-57
2024/01/15 02:48:20;;;;;;;13.23;8.97;;;;;;;0.63;95.48;97999.66;5070426;28;20615;-55
2024/01/15 02:50:48;;;;;;;13.23;9.13;;;;;;;0.64;95.05;97992.88;5069860;28;20240;-58
2024/01/15 02:53:16;;;;;;;12.40;9.07;;;;;;;0.65;94.99;97992.03;5070547;28;20731;-56
2024/01/15 02:55:44;;;;;;;15.97;10.07;;;;;;;0.64;95.00;97988.66;5064453;28;20221;-55
2024/01/15 02:58:13;;;;;;;13.03;9.57;;;;;;;0.63;95.08;97993.75;5063736;28;20286;-57
2024/01/15 03:00:41;;;;;;;15.23;10.07;;;;;;;0.58;94.64;97978.53;5069770;28;20218;-56
2024/01/15 03:03:09;;;;;;;13.60;9.00;;;;;;;0.56;95.29;97966.75;5068831;28;20210;-55
2024/01/15 03:05:37;;;;;;;15.50;9.77;;;;;;;0.53;95.39;97966.75;5072287;28;20282;-55
2024/01/15 03:08:05;;;;;;;17.10;9.87;;;;;;;0.51;95.47;97963.38;5072501;28;20201;-58
2024/01/15 03:10:33;;;;;;;17.03;10.87;;;;;;;0.52;95.69;97949.88;5073496;28;20193;-56
2024/01/15 03:13:01;;;;;;;16.07;9.87;;;;;;;0.51;96.04;97953.25;5064216;28;20214;-56
2024/01/15 03:15:31;;;;;;;14.60;10.20;;;;;;;0.48;96.56;97949.88;5073326;28;20411;-54
2024/01/15 03:17:59;;;;;;;15.40;10.40;;;;;;;0.47;97.11;97947.34;5073895;28;20648;-57
2024/01/15 03:20:26;;;;;;;17.50;10.37;;;;;;;0.45;97.66;97944.84;5073563;28;20710;-57
2024/01/15 03:22:54;;;;;;;15.80;10.57;;;;;;;0.44;97.58;97944.81;5073856;28;20205;-57
2024/01/15 03:25:22;;;;;;;13.93;10.40;;;;;;;0.40;99.04;97946.53;5072924;28;20220;-57
2024/01/15 03:27:50;;;;;;;17.23;11.03;;;;;;;0.36;99.29;97932.19;5073508;28;20596;-57
2024/01/15 03:30:18;;;;;;;15.63;11.07;;;;;;;0.36;99.98;97934.72;5060989;28;20718;-55
2024/01/15 03:32:49;;;;;;;17.83;11.93;;;;;;;0.33;100.00;97934.78;5076427;28;20203;-55
2024/01/15 03:35:18;;;;;;;17.07;10.97;;;;;;;0.29;100.00;97925.47;5069881;28;20206;-55
2024/01/15 03:37:46;;;;;;;16.60;10.90;;;;;;;0.29;100.00;97928.00;5071899;28;20197;-55
2024/01/15 03:40:14;;;;;;;19.77;12.23;;;;;;;0.28;100.00;97930.56;5072018;28;20209;-54
2024/01/15 03:42:43;;;;;;;17.90;11.23;;;;;;;0.27;100.00;97928.88;5071893;28;20212;-53
2024/01/15 03:45:11;;;;;;;19.03;11.77;;;;;;;0.26;100.00;97924.66;5069340;28;20201;-56
2024/01/15 03:47:39;;;;;;;16.30;10.37;;;;;;;0.22;100.00;97919.63;5072885;28;20236;-56
2024/01/15 03:50:10;;;;;;;17.23;11.40;;;;;;;0.22;100.00;97911.16;5072564;28;20245;-56
2024/01/15 03:52:38;;;;;;;15.63;11.10;;;;;;;0.22;100.00;97913.69;5069829;28;20201;-56
2024/01/15 03:55:06;;;;;;;16.23;10.67;;;;;;;0.22;99.89;97901.03;5072879;28;20212;-55
2024/01/15 03:57:34;;;;;;;14.47;10.07;;;;;;;0.24;99.90;97886.69;5069658;28;20246;-55
2024/01/15 04:00:03;;;;;;;18.03;9.90;;;;;;;0.28;99.34;97900.16;5072904;28;20213;-55
2024/01/15 04:02:31;;;;;;;17.87;10.60;;;;;;;0.30;99.22;97891.72;5071622;28;20228;-55
2024/01/15 04:04:59;;;;;;;16.87;10.03;;;;;;;0.28;98.60;97895.94;5064106;28;20197;-56
2024/01/15 04:07:28;;;;;;;15.63;10.00;;;;;;;0.27;99.02;97893.44;5068857;28;20289;-57
2024/01/15 04:09:56;;;;;;;17.10;10.70;;;;;;;0.30;98.62;97889.19;5065794;28;20210;-56
2024/01/15 04:12:24;;;;;;;13.73;9.27;;;;;;;0.28;98.61;97880.75;5069661;28;20727;-55
2024/01/15 04:14:52;;;;;;;15.20;10.23;;;;;;;0.28;98.39;97875.69;5067538;28;20714;-56
2024/01/15 04:17:21;;;;;;;15.57;10.00;;;;;;;0.29;98.17;97876.53;5067608;28;20210;-61
2024/01/15 04:19:49;;;;;;;15.70;10.30;;;;;;;0.30;97.97;97868.94;5069367;28;20197;-56
2024/01/15 04:22:17;;;;;;;15.70;9.37;;;;;;;0.30;97.67;97856.25;5071634;28;20308;-57
2024/01/15 04:24:47;;;;;;;15.77;9.90;;;;;;;0.34;97.14;97852.84;5071507;28;20255;-55
2024/01/15 04:27:15;;;;;;;12.43;9.20;;;;;;;0.34;96.93;97842.72;5063503;28;20209;-53
2024/01/15 04:29:44;;;;;;;12.73;9.17;;;;;;;0.35;96.85;97841.03;5067945;28;20640;-56
2024/01/15 04:32:12;;;;;;;11.73;8.40;;;;;;;0.36;95.97;97832.56;5065492;28;20288;-55
2024/01/15 04:34:40;;;;;;;13.90;9.20;;;;;;;0.39;95.17;97833.41;5071885;28;20205;-56
2024/01/15 04:37:08;;;;;;;11.90;8.30;;;;;;;0.42;95.30;97827.47;5061551;28;20212;-54
2024/01/15 04:39:36;;;;;;;10.97;8.17;;;;;;;0.43;94.44;97819.03;5072162;28;20202;-56
2024/01/15 04:42:06;;;;;;;12.60;8.50;;;;;;;0.44;94.65;97818.16;5071795;28;20213;-55
2024/01/15 04:44:33;;;;;;;13.37;8.20;;;;;;;0.43;94.37;97819.03;5071759;28;20206;-57
2024/01/15 04:47:01;;;;;;;13.60;8.77;;;;;;;0.44;94.40;97821.56;5071988;28;20283;-55
2024/01/15 04:49:29;;;;;;;13.20;8.60;;;;;;;0.46;93.08;97819.84;5064899;28;20743;-56
2024/01/15 04:51:57;;;;;;;11.07;8.53;;;;;;;0.48;92.50;97824.91;5067738;28;20664;-58
2024/01/15 04:54:25;;;;;;;11.50;7.70;;;;;;;0.48;92.12;97833.34;5063833;28;20193;-56
2024/01/15 04:56:53;;;;;;;14.43;8.20;;;;;;;0.49;92.19;97819.00;5071769;28;20343;-56
2024/01/15 04:59:23;;;;;;;11.60;7.93;;;;;;;0.51;91.76;97812.19;5059140;28;20205;-57
2024/01/15 05:01:51;;;;;;;9.03;7.23;;;;;;;0.54;92.45;97824.00;5071104;28;20209;-61
2024/01/15 05:04:19;;;;;;;12.23;8.23;;;;;;;0.56;92.09;97814.72;5070339;28;20206;-56
2024/01/15 05:06:46;;;;;;;12.60;7.80;;;;;;;0.56;91.62;97827.38;5072107;28;20291;-57
2024/01/15 05:09:14;;;;;;;10.60;7.70;;;;;;;0.57;91.29;97808.78;5072018;28;20201;-55
2024/01/15 05:11:42;;;;;;;10.07;7.17;;;;;;;0.56;91.09;97799.53;5065387;28;20683;-56
2024/01/15 05:14:11;;;;;;;9.67;7.63;;;;;;;0.58;90.77;97810.47;5057346;28;20210;-56
2024/01/15 05:16:40;;;;;;;15.07;8.07;;;;;;;0.56;90.50;97800.34;5068206;28;20236;-55
2024/01/15 05:19:08;;;;;;;12.13;7.40;;;;;;;0.58;91.08;97792.72;5071158;28;20545;-57
2024/01/15 05:21:36;;;;;;;10.70;7.40;;;;;;;0.58;90.54;97813.84;5070960;28;20235;-56
2024/01/15 05:24:05;;;;;;;13.00;8.47;;;;;;;0.59;90.64;97796.94;5071304;28;20236;-55
2024/01/15 05:26:33;;;;;;;10.57;8.60;;;;;;;0.59;90.94;97790.19;5071738;28;20560;-57
2024/01/15 05:29:01;;;;;;;12.37;9.37;;;;;;;0.57;91.01;97793.59;5062664;28;20596;-56
2024/01/15 05:31:28;;;;;;;11.77;8.03;;;;;;;0.57;90.78;97786.00;5066117;28;20220;-58
2024/01/15 05:33:58;;;;;;;11.37;7.87;;;;;;;0.56;90.28;97795.28;5064386;28;20730;-54
2024/01/15 05:36:26;;;;;;;9.90;8.07;;;;;;;0.56;90.51;97792.75;5061881;28;20244;-56
2024/01/15 05:38:54;;;;;;;10.73;8.00;;;;;;;0.57;90.74;97793.59;5069226;28;20212;-54
2024/01/15 05:41:22;;;;;;;11.43;8.17;;;;;;;0.56;90.78;97784.31;5070765;28;20197;-56
2024/01/15 05:43:49;;;;;;;12.97;9.17;;;;;;;0.56;91.04;97799.53;5071053;28;20236;-56
2024/01/15 05:46:17;;;;;;;10.50;8.10;;;;;;;0.59;90.20;97799.47;5061712;28;20208;-60
2024/01/15 05:48:45;;;;;;;10.70;8.53;;;;;;;0.58;90.27;97802.88;5062655;28;20215;-56
2024/01/15 05:51:15;;;;;;;10.90;7.10;;;;;;;0.57;90.39;97801.19;5064320;28;20683;-54
2024/01/15 05:53:44;;;;;;;11.37;8.23;;;;;;;0.57;91.22;97796.13;5066565;28;20250;-57
2024/01/15 05:56:12;;;;;;;10.87;8.17;;;;;;;0.56;90.72;97782.63;5077664;28;20571;-57
2024/01/15 05:58:40;;;;;;;10.00;8.40;;;;;;;0.56;91.23;97784.31;5069975;28;20205;-56
2024/01/15 06:01:08;;;;;;;10.37;7.77;;;;;;;0.52;92.30;97772.53;5067353;28;20216;-55
2024/01/15 06:03:36;;;;;;;10.93;7.43;;;;;;;0.50;92.41;97774.22;5069122;28;20240;-58
2024/01/15 06:06:04;;;;;;;10.90;8.70;;;;;;;0.48;92.49;97784.38;5070038;28;20204;-57
2024/01/15 06:08:33;;;;;;;11.30;8.00;;;;;;;0.46;92.11;97769.16;5065560;28;20280;-57
2024/01/15 06:11:01;;;;;;;10.53;8.40;;;;;;;0.48;92.32;97776.78;5063665;28;20210;-59
2024/01/15 06:13:29;;;;;;;11.27;9.10;;;;;;;0.48;91.78;97772.56;5071027;28;20995;-56
2024/01/15 06:15:57;;;;;;;10.70;7.70;;;;;;;0.47;91.79;97760.72;5068315;28;20929;-57
2024/01/15 06:18:25;;;;;;;11.77;7.43;;;;;;;0.47;90.90;97770.84;5071149;28;20282;-58
2024/01/15 06:20:54;;;;;;;12.53;8.63;;;;;;;0.48;91.64;97751.44;5066902;28;20217;-60
2024/01/15 06:23:22;;;;;;;10.10;7.97;;;;;;;0.51;91.29;97755.63;5067527;28;20221;-58
2024/01/15 06:25:51;;;;;;;12.27;8.97;;;;;;;0.50;90.02;97764.09;5069069;28;20209;-58
2024/01/15 06:28:19;;;;;;;13.57;9.17;;;;;;;0.52;90.60;97739.59;5071425;28;20595;-61
2024/01/15 06:30:47;;;;;;;13.33;9.03;;;;;;;0.48;91.52;97762.41;5070766;28;20210;-58
2024/01/15 06:33:15;;;;;;;13.60;9.40;;;;;;;0.43;92.29;97754.00;5059936;28;20569;-67
2024/01/15 06:35:43;;;;;;;12.43;9.13;;;;;;;0.41;92.28;97749.81;5064722;28;20260;-58
2024/01/15 06:38:11;;;;;;;12.67;8.83;;;;;;;0.39;92.54;97751.50;5065673;28;20242;-57
2024/01/15 06:40:45;;;;;;;13.10;9.17;;;;;;;0.38;91.93;97752.38;5072902;28;20224;-57
2024/01/15 06:43:16;;;;;;;12.27;8.57;;;;;;;0.37;91.91;97743.94;5065211;28;20232;-57
2024/01/15 06:45:44;;;;;;;13.57;8.73;;;;;;;0.40;91.97;97743.03;5067367;28;20220;-57
2024/01/15 06:48:13;;;;;;;12.87;8.83;;;;;;;0.42;91.79;97747.25;5070319;28;20220;-58
2024/01/15 06:50:41;;;;;;;13.07;9.13;;;;;;;0.46;92.14;97743.84;5068409;28;20233;-58
2024/01/15 06:53:09;;;;;;;15.43;9.13;;;;;;;0.49;91.81;97737.91;5072932;28;20197;-57
2024/01/15 06:55:38;;;;;;;12.47;8.30;;;;;;;0.50;90.68;97742.13;5074185;28;20648;-56
2024/01/15 06:58:06;;;;;;;11.83;8.07;;;;;;;0.55;90.30;97749.69;5071920;28;20680;-58
2024/01/15 07:00:35;;;;;;;11.80;8.57;;;;;;;0.59;90.24;97749.66;5073047;28;20210;-58
2024/01/15 07:03:04;;;;;;;13.73;7.97;;;;;;;0.57;90.59;97756.41;5074178;28;20228;-61
2024/01/15 07:05:32;;;;;;;13.37;8.50;;;;;;;0.56;91.11;97751.38;5065748;28;20201;-56
2024/01/15 07:08:00;;;;;;;15.00;9.03;;;;;;;0.52;89.79;97749.72;5060083;28;21690;-58
2024/01/15 07:10:27;;;;;;;12.50;8.67;;;;;;;0.48;91.47;97752.28;5062648;28;20682;-59
2024/01/15 07:12:55;;;;;;;13.03;9.10;;;;;;;0.46;90.68;97756.50;5063294;28;20202;-59
2024/01/15 07:15:24;;;;;;;12.97;8.63;;;;;;;0.44;90.72;97753.16;5067228;28;20201;-57
2024/01/15 07:17:53;;;;;;;12.50;8.37;;;;;;;0.43;91.33;97746.41;5070067;28;20201;-58
2024/01/15 07:20:21;;;;;;;12.57;9.07;;;;;;;0.44;92.10;97754.81;5073933;28;20220;-58
2024/01/15 07:22:49;;;;;;;14.00;9.40;;;;;;;0.41;92.26;97749.81;5068777;28;20230;-58
2024/01/15 07:25:17;;;;;;;13.60;9.50;;;;;;;0.36;94.07;97749.81;5070478;28;20205;-58
2024/01/15 07:27:46;;;;;;;15.33;10.07;;;;;;;0.30;95.08;97754.97;5064695;28;20198;-62
2024/01/15 07:30:15;;;;;;;12.57;9.50;;;;;;;0.22;95.56;97760.09;5070899;28;20205;-57
2024/01/15 07:32:43;;;;;;;13.13;9.80;;;;;;;0.21;96.01;97763.44;5062018;28;20208;-58
2024/01/15 07:35:12;;;;;;;14.13;9.93;;;;;;;0.18;97.21;97760.09;5071358;28;20217;-56
2024/01/15 07:37:40;;;;;;;14.97;10.73;;;;;;;0.16;97.68;97754.22;5060914;28;20246;-62
2024/01/15 07:40:10;;;;;;;14.97;10.23;;;;;;;0.16;98.12;97755.06;5073362;28;20647;-58
2024/01/15 07:42:38;;;;;;;16.97;10.23;;;;;;;0.18;98.17;97753.34;5068767;28;20248;-58
2024/01/15 07:45:07;;;;;;;14.50;10.27;;;;;;;0.17;96.63;97753.34;5070742;28;20239;-59
2024/01/15 07:47:35;;;;;;;16.17;10.70;;;;;;;0.20;96.85;97771.06;5072207;28;20205;-60
2024/01/15 07:50:04;;;;;;;14.37;9.80;;;;;;;0.24;96.56;97762.59;5072074;28;20766;-56
2024/01/15 07:52:35;;;;;;;12.07;7.87;;;;;;;0.23;95.40;97761.75;5072189;28;20201;-58
2024/01/15 07:55:05;;;;;;;12.83;8.60;;;;;;;0.26;95.12;97754.97;5072036;28;20201;-58
2024/01/15 07:57:33;;;;;;;11.97;7.33;;;;;;;0.29;93.14;97767.63;5072751;28;20209;-58
2024/01/15 08:00:01;;;;;;;12.73;8.73;;;;;;;0.31;93.53;97761.69;5073151;28;20674;-59
2024/01/15 08:02:29;;;;;;;11.37;8.90;;;;;;;0.32;93.79;97755.78;5072605;28;20664;-58
2024/01/15 08:05:01;;;;;;;16.40;9.13;;;;;;;0.29;95.10;97758.31;5066684;28;20254;-58
2024/01/15 08:07:29;;;;;;;11.83;9.13;;;;;;;0.23;96.64;97755.84;5071328;28;20756;-57
2024/01/15 08:09:58;;;;;;;13.13;8.90;;;;;;;0.20;98.25;97760.94;5071872;28;20309;-58
2024/01/15 08:12:26;;;;;;;14.00;9.57;;;;;;;0.15;98.96;97757.59;5073226;28;20723;-58
2024/01/15 08:14:54;;;;;;;14.70;10.23;;;;;;;0.10;99.32;97761.84;5073073;28;20713;-58
2024/01/15 08:17:22;;;;;;;15.87;10.63;;;;;;;0.06;99.98;97757.66;5070653;28;20660;-58
2024/01/15 08:19:50;;;;;;;15.07;10.43;;;;;;;0.07;100.00;97750.03;5072989;28;20217;-58
2024/01/15 08:22:18;;;;;;;14.40;9.90;;;;;;;0.09;100.00;97753.41;5070787;28;20255;-59
2024/01/15 08:24:46;;;;;;;14.13;9.80;;;;;;;0.13;97.48;97764.34;5071137;28;20688;-57
2024/01/15 08:27:15;;;;;;;13.03;9.50;;;;;;;0.18;96.07;97765.16;5063297;28;20221;-59
2024/01/15 08:29:44;;;;;;;12.53;9.90;;;;;;;0.24;94.01;97767.66;5067081;28;20205;-60
2024/01/15 08:32:15;;;;;;;9.70;8.10;;;;;;;0.28;93.36;97764.25;5067921;28;20255;-59
2024/01/15 08:34:43;;;;;;;10.53;7.43;;;;;;;0.38;92.13;97755.72;5072255;28;20597;-58
2024/01/15 08:37:11;;;;;;;11.83;7.57;;;;;;;0.53;92.05;97756.47;5071973;28;20205;-58
2024/01/15 08:39:39;;;;;;;7.87;6.60;;;;;;;0.65;90.24;97758.88;5072224;28;20706;-58
2024/01/15 08:42:07;;;;;;;9.90;6.97;;;;;;;0.75;88.38;97762.19;5071907;28;20255;-58
2024/01/15 08:44:39;;;;;;;10.80;6.77;;;;;;;0.82;88.50;97767.19;5062873;28;20263;-58
2024/01/15 08:47:07;;;;;;;10.90;6.90;;;;;;;0.85;88.13;97766.31;5068528;28;20562;-58
2024/01/15 08:49:36;;;;;;;8.90;6.53;;;;;;;0.85;87.58;97769.69;5072048;28;20606;-59
2024/01/15 08:52:04;;;;;;;9.13;5.63;;;;;;;0.82;88.25;97767.19;5070583;28;20209;-58
2024/01/15 08:54:32;;;;;;;10.07;7.23;;;;;;;0.78;89.02;97782.44;5071985;28;20717;-58
2024/01/15 08:57:00;;;;;;;8.47;7.13;;;;;;;0.72;89.72;97775.72;5072458;28;20240;-59
2024/01/15 08:59:28;;;;;;;8.90;7.27;;;;;;;0.69;89.96;97778.28;5071633;28;20243;-58
2024/01/15 09:01:57;;;;;;;9.67;7.53;;;;;;;0.64;91.10;97785.91;5071836;28;20233;-57
2024/01/15 09:04:25;;;;;;;10.00;7.73;;;;;;;0.66;91.78;97801.09;5069450;28;20576;-55
2024/01/15 09:06:53;;;;;;;8.83;7.00;;;;;;;0.62;91.82;97790.16;5071785;28;20753;-56
2024/01/15 09:09:22;;;;;;;11.93;7.40;;;;;;;0.60;92.04;97791.03;5071725;28;20217;-57
2024/01/15 09:11:50;;;;;;;9.77;7.47;;;;;;;0.60;92.07;97786.81;5066015;28;20209;-55
2024/01/15 09:14:18;;;;;;;9.43;7.87;;;;;;;0.64;91.53;97777.47;5071871;28;20209;-57
2024/01/15 09:17:05;;;;;;;9.80;7.30;;;;;;;0.68;89.28;97779.97;5060209;28;20206;-56
2024/01/15 09:19:33;;;;;;;8.87;6.90;;;;;;;0.73;88.76;97769.78;5069910;28;20559;-55
2024/01/15 09:22:01;;;;;;;9.83;7.03;;;;;;;0.87;88.83;97772.19;5068572;28;20259;-58
2024/01/15 09:24:29;;;;;;;7.50;6.37;;;;;;;1.01;86.69;97772.06;5071344;28;20698;-59
2024/01/15 09:26:57;;;;;;;9.53;5.53;;;;;;;1.04;85.62;97759.38;5069832;28;20575;-59
2024/01/15 09:29:25;;;;;;;7.57;6.10;;;;;;;1.05;84.45;97794.00;5070399;28;20315;-62
2024/01/15 09:31:53;;;;;;;10.17;6.33;;;;;;;0.98;83.80;97761.97;5069529;28;20208;-63
2024/01/15 09:34:22;;;;;;;7.43;5.43;;;;;;;0.92;84.32;97756.09;5058078;28;20202;-60
2024/01/15 09:36:51;;;;;;;6.67;5.80;;;;;;;0.93;84.95;97749.34;5067569;28;20213;-60
2024/01/15 09:39:19;;;;;;;7.63;5.50;;;;;;;0.92;84.14;97756.09;5070959;28;20251;-60
2024/01/15 09:41:48;;;;;;;7.63;4.97;;;;;;;0.95;84.40;97762.81;5070595;28;20201;-60
2024/01/15 09:44:16;;;;;;;8.17;5.63;;;;;;;1.03;83.77;97760.19;5071068;28;20758;-60
2024/01/15 09:46:44;;;;;;;9.00;5.70;;;;;;;1.14;82.48;97753.31;5068864;28;20660;-58
2024/01/15 09:49:12;;;;;;;9.23;4.97;;;;;;;1.18;82.15;97755.00;5075632;28;20707;-60
2024/01/15 09:51:43;;;;;;;7.73;5.63;;;;;;;1.16;80.63;97757.53;5070533;28;20201;-59
2024/01/15 09:54:16;;;;;;;7.50;5.27;;;;;;;1.12;80.78;97760.13;5068363;28;20587;-60
2024/01/15 09:56:46;;;;;;;7.33;4.57;;;;;;;1.13;80.54;97746.56;5070349;28;20291;-59
2024/01/15 09:59:16;;;;;;;7.47;4.90;;;;;;;1.16;79.28;97759.22;5071583;28;20224;-61
2024/01/15 10:01:44;;;;;;;8.43;5.03;;;;;;;1.10;80.37;97749.13;5070745;28;20211;-59
2024/01/15 10:04:13;;;;;;;7.03;4.80;;;;;;;1.12;80.60;97747.44;5066599;28;20227;-59
2024/01/15 10:06:46;;;;;;;5.67;4.00;;;;;;;1.15;79.51;97747.41;5064893;28;20205;-60
2024/01/15 10:09:15;;;;;;;7.90;4.70;;;;;;;1.23;78.78;97748.16;5070752;28;20196;-59
2024/01/15 10:11:44;;;;;;;6.77;4.03;;;;;;;1.30;79.43;97749.78;5070421;28;20292;-61
2024/01/15 10:14:13;;;;;;;7.07;4.23;;;;;;;1.29;78.06;97735.41;5069744;28;20220;-59
2024/01/15 10:16:41;;;;;;;9.80;4.53;;;;;;;1.24;77.37;97747.28;5068758;28;20201;-61
2024/01/15 10:19:09;;;;;;;6.67;4.63;;;;;;;1.17;77.73;97740.63;5067883;28;20231;-59
2024/01/15 10:21:38;;;;;;;7.90;4.90;;;;;;;1.12;77.46;97744.91;5060847;28;20197;-59
2024/01/15 10:24:07;;;;;;;9.57;4.23;;;;;;;1.14;77.90;97748.25;5070007;28;20315;-58
2024/01/15 10:26:35;;;;;;;7.90;4.00;;;;;;;1.16;77.29;97741.47;5070346;28;20643;-59
2024/01/15 10:29:03;;;;;;;6.17;4.00;;;;;;;1.16;77.43;97744.00;5067374;28;20245;-60
2024/01/15 10:31:32;;;;;;;9.03;5.03;;;;;;;1.11;78.47;97754.22;5070365;28;20209;-61
2024/01/15 10:34:12;;;;;;;8.63;4.63;;;;;;;1.07;80.01;97750.03;5069252;28;20240;-62
2024/01/15 10:36:41;;;;;;;9.70;5.53;;;;;;;1.07;79.39;97742.44;5070298;28;20995;-60
2024/01/15 10:39:12;;;;;;;6.23;4.93;;;;;;;1.08;79.53;97740.72;5069397;28;20718;-59
2024/01/15 10:41:40;;;;;;;6.60;4.73;;;;;;;1.06;80.46;97740.72;5070113;28;20205;-60
2024/01/15 10:44:07;;;;;;;8.27;4.97;;;;;;;1.01;79.30;97734.03;5067815;28;20193;-62
2024/01/15 10:46:36;;;;;;;8.63;5.93;;;;;;;1.01;80.24;97718.81;5069709;28;20236;-61
2024/01/15 10:49:05;;;;;;;6.40;4.70;;;;;;;1.09;80.40;97730.56;5070352;28;20233;-61
2024/01/15 10:51:33;;;;;;;10.07;5.53;;;;;;;1.20;79.90;97745.66;5070767;28;20267;-61
2024/01/15 10:54:02;;;;;;;8.37;4.80;;;;;;;1.22;80.19;97733.81;5070801;28;20678;-59
2024/01/15 10:56:33;;;;;;;8.03;5.13;;;;;;;1.23;80.07;97743.09;5070192;28;20214;-60
2024/01/15 10:59:01;;;;;;;6.30;4.87;;;;;;;1.19;80.39;97742.28;5070357;28;20243;-59
2024/01/15 11:01:29;;;;;;;8.40;4.80;;;;;;;1.25;80.50;97735.44;5070343;28;20233;-59
2024/01/15 11:03:58;;;;;;;8.77;5.37;;;;;;;1.24;79.36;97747.28;5070398;28;20213;-58
2024/01/15 11:06:29;;;;;;;7.23;5.00;;;;;;;1.15;80.15;97732.19;5068703;28;20683;-59
2024/01/15 11:08:58;;;;;;;5.27;4.43;;;;;;;1.20;79.88;97738.03;5070459;28;20236;-59
2024/01/15 11:11:26;;;;;;;6.77;4.47;;;;;;;1.28;79.70;97736.25;5069699;28;20205;-59
2024/01/15 11:13:56;;;;;;;9.50;5.17;;;;;;;1.34;79.43;97731.13;5069335;28;20295;-60
2024/01/15 11:16:24;;;;;;;5.87;4.60;;;;;;;1.30;79.33;97749.78;5070703;28;20653;-62
2024/01/15 11:19:08;;;;;;;7.97;5.20;;;;;;;1.25;79.24;97741.34;5070212;28;20197;-60
2024/01/15 11:21:44;;;;;;;8.47;4.87;;;;;;;1.17;79.10;97723.69;5070328;28;20204;-59
2024/01/15 11:24:36;;;;;;;7.00;4.20;;;;;;;1.12;79.82;97729.69;5070069;28;20292;-60
2024/01/15 11:27:04;;;;;;;6.77;4.83;;;;;;;1.15;79.32;97722.88;5052790;28;20221;-59
2024/01/15 11:29:35;;;;;;;9.03;5.47;;;;;;;1.15;79.87;97727.97;5061724;28;20216;-60
2024/01/15 11:32:05;;;;;;;10.67;5.27;;;;;;;1.18;79.31;97745.69;5070772;28;20208;-59
2024/01/15 11:34:54;;;;;;;10.33;6.00;;;;;;;1.18;78.97;97724.56;5053672;28;20361;-61
2024/01/15 11:37:24;;;;;;;7.63;5.30;;;;;;;1.17;79.26;97733.84;5053653;28;20241;-61
2024/01/15 11:39:54;;;;;;;7.27;4.73;;;;;;;1.19;79.06;97731.31;5062791;28;20709;-60